sensor_id;sensor_type;location;lat;lon;timestamp;pressure;altitude;pressure_sealevel;temperature;humidity
5966;BME280;3009;43.224;27.976;2023-04-01T00:01:18;99610.44;;;10.72;94.62
5966;BME280;3009;43.224;27.976;2023-04-01T00:03:47;99607.69;;;10.81;93.83
5966;BME280;3009;43.224;27.976;2023-04-01T00:06:17;99615.09;;;10.84;93.78
5966;BME280;3009;43.224;27.976;2023-04-01T00:08:46;99607.28;;;10.91;93.22
5966;BME280;3009;43.224;27.976;2023-04-01T00:11:15;99602.06;;;10.95;93.01
5966;BME280;3009;43.224;27.976;2023-04-01T00:13:47;99605.31;;;11.01;92.75
5966;BME280;3009;43.224;27.976;2023-04-01T00:16:17;99597.47;;;10.95;92.73
5966;BME280;3009;43.224;27.976;2023-04-01T00:18:48;99606.16;;;10.92;93.11
5966;BME280;3009;43.224;27.976;2023-04-01T00:21:18;99597.34;;;10.92;93.21
5966;BME280;3009;43.224;27.976;2023-04-01T00:23:47;99600.81;;;10.92;92.98
5966;BME280;3009;43.224;27.976;2023-04-01T00:26:15;99601.06;;;10.99;92.25
5966;BME280;3009;43.224;27.976;2023-04-01T00:28:47;99594.13;;;10.98;92.54
5966;BME280;3009;43.224;27.976;2023-04-01T00:31:16;99592.09;;;10.95;93.11
5966;BME280;3009;43.224;27.976;2023-04-01T00:33:46;99597.91;;;10.97;92.64
5966;BME280;3009;43.224;27.976;2023-04-01T00:36:17;99592.69;;;11.01;92.56
5966;BME280;3009;43.224;27.976;2023-04-01T00:38:46;99585.31;;;10.98;92.60
5966;BME280;3009;43.224;27.976;2023-04-01T00:41:15;99577.84;;;11.04;91.30
5966;BME280;3009;43.224;27.976;2023-04-01T00:43:45;99582.06;;;11.05;91.82
5966;BME280;3009;43.224;27.976;2023-04-01T00:46:14;99574.06;;;11.17;90.56
5966;BME280;3009;43.224;27.976;2023-04-01T00:48:47;99578.75;;;11.20;90.04
5966;BME280;3009;43.224;27.976;2023-04-01T00:51:19;99573.72;;;11.18;89.86
5966;BME280;3009;43.224;27.976;2023-04-01T00:53:50;99571.97;;;11.23;89.70
5966;BME280;3009;43.224;27.976;2023-04-01T00:56:23;99601.16;;;11.24;90.13
5966;BME280;3009;43.224;27.976;2023-04-01T00:58:57;99595.00;;;10.18;100.00
5966;BME280;3009;43.224;27.976;2023-04-01T01:01:28;99581.31;;;9.43;100.00
5966;BME280;3009;43.224;27.976;2023-04-01T01:03:59;99601.84;;;8.68;100.00
5966;BME280;3009;43.224;27.976;2023-04-01T01:06:39;99598.69;;;8.49;100.00
5966;BME280;3009;43.224;27.976;2023-04-01T01:09:25;99597.72;;;8.45;100.00
5966;BME280;3009;43.224;27.976;2023-04-01T01:12:02;99597.84;;;8.40;100.00
5966;BME280;3009;43.224;27.976;2023-04-01T01:14:41;99586.53;;;8.34;100.00
5966;BME280;3009;43.224;27.976;2023-04-01T01:17:20;99589.34;;;8.29;100.00
5966;BME280;3009;43.224;27.976;2023-04-01T01:20:18;99593.75;;;8.42;100.00
5966;BME280;3009;43.224;27.976;2023-04-01T01:23:02;99592.03;;;8.38;100.00
5966;BME280;3009;43.224;27.976;2023-04-01T01:25:42;99592.34;;;8.36;100.00
5966;BME280;3009;43.224;27.976;2023-04-01T01:28:27;99604.56;;;8.28;100.00
5966;BME280;3009;43.224;27.976;2023-04-01T01:31:03;99589.19;;;8.25;100.00
5966;BME280;3009;43.224;27.976;2023-04-01T01:33:57;99574.72;;;8.26;100.00
5966;BME280;3009;43.224;27.976;2023-04-01T01:36:33;99575.97;;;8.20;100.00
5966;BME280;3009;43.224;27.976;2023-04-01T01:39:03;99574.41;;;8.19;100.00
5966;BME280;3009;43.224;27.976;2023-04-01T01:41:33;99562.44;;;8.08;100.00
5966;BME280;3009;43.224;27.976;2023-04-01T01:44:04;99561.75;;;7.85;100.00
5966;BME280;3009;43.224;27.976;2023-04-01T01:46:35;99565.00;;;7.73;100.00
5966;BME280;3009;43.224;27.976;2023-04-01T01:49:07;99577.81;;;7.62;100.00
5966;BME280;3009;43.224;27.976;2023-04-01T01:51:38;99578.13;;;7.60;100.00
5966;BME280;3009;43.224;27.976;2023-04-01T01:54:07;99580.28;;;7.50;100.00
5966;BME280;3009;43.224;27.976;2023-04-01T01:56:41;99581.66;;;7.38;100.00
5966;BME280;3009;43.224;27.976;2023-04-01T01:59:11;99584.94;;;7.35;100.00
5966;BME280;3009;43.224;27.976;2023-04-01T02:01:44;99579.75;;;7.39;100.00
5966;BME280;3009;43.224;27.976;2023-04-01T02:04:14;99589.69;;;7.47;100.00
5966;BME280;3009;43.224;27.976;2023-04-01T02:06:48;99579.63;;;7.44;100.00
5966;BME280;3009;43.224;27.976;2023-04-01T02:09:19;99570.69;;;7.40;100.00
5966;BME280;3009;43.224;27.976;2023-04-01T02:11:51;99574.25;;;7.35;100.00
5966;BME280;3009;43.224;27.976;2023-04-01T02:14:22;99564.84;;;7.38;100.00
5966;BME280;3009;43.224;27.976;2023-04-01T02:16:55;99560.88;;;7.58;100.00
5966;BME280;3009;43.224;27.976;2023-04-01T02:19:27;99558.09;;;7.72;100.00
5966;BME280;3009;43.224;27.976;2023-04-01T02:22:02;99548.47;;;8.02;100.00
5966;BME280;3009;43.224;27.976;2023-04-01T02:24:32;99545.81;;;8.11;100.00
5966;BME280;3009;43.224;27.976;2023-04-01T02:27:03;99556.03;;;8.18;100.00
5966;BME280;3009;43.224;27.976;2023-04-01T02:29:32;99534.22;;;8.42;100.00
5966;BME280;3009;43.224;27.976;2023-04-01T02:32:01;99534.53;;;8.66;100.00
5966;BME280;3009;43.224;27.976;2023-04-01T02:34:30;99544.91;;;8.77;100.00
5966;BME280;3009;43.224;27.976;2023-04-01T02:37:00;99541.16;;;8.78;100.00
5966;BME280;3009;43.224;27.976;2023-04-01T02:39:29;99539.28;;;8.52;100.00
5966;BME280;3009;43.224;27.976;2023-04-01T02:41:58;99530.75;;;8.32;100.00
5966;BME280;3009;43.224;27.976;2023-04-01T02:44:26;99529.66;;;8.25;100.00
5966;BME280;3009;43.224;27.976;2023-04-01T02:46:55;99521.94;;;8.23;100.00
5966;BME280;3009;43.224;27.976;2023-04-01T02:49:23;99531.53;;;8.42;100.00
5966;BME280;3009;43.224;27.976;2023-04-01T02:51:52;99530.47;;;8.60;100.00
5966;BME280;3009;43.224;27.976;2023-04-01T02:54:21;99522.31;;;8.65;100.00
5966;BME280;3009;43.224;27.976;2023-04-01T02:56:50;99526.06;;;8.73;100.00
5966;BME280;3009;43.224;27.976;2023-04-01T02:59:18;99513.78;;;8.90;100.00
5966;BME280;3009;43.224;27.976;2023-04-01T03:01:46;99508.75;;;8.88;100.00
5966;BME280;3009;43.224;27.976;2023-04-01T03:04:15;99506.41;;;8.86;100.00
5966;BME280;3009;43.224;27.976;2023-04-01T03:06:43;99504.81;;;8.85;100.00
5966;BME280;3009;43.224;27.976;2023-04-01T03:09:12;99497.63;;;8.77;100.00
5966;BME280;3009;43.224;27.976;2023-04-01T03:11:42;99492.09;;;8.74;100.00
5966;BME280;3009;43.224;27.976;2023-04-01T03:14:10;99506.28;;;8.65;100.00
5966;BME280;3009;43.224;27.976;2023-04-01T03:16:39;99509.44;;;8.50;100.00
5966;BME280;3009;43.224;27.976;2023-04-01T03:19:07;99507.34;;;8.47;100.00
5966;BME280;3009;43.224;27.976;2023-04-01T03:21:36;99507.81;;;8.31;100.00
5966;BME280;3009;43.224;27.976;2023-04-01T03:24:05;99496.66;;;8.21;100.00
5966;BME280;3009;43.224;27.976;2023-04-01T03:26:34;99497.09;;;8.23;100.00
5966;BME280;3009;43.224;27.976;2023-04-01T03:29:04;99492.41;;;8.11;100.00
5966;BME280;3009;43.224;27.976;2023-04-01T03:31:32;99488.31;;;8.05;100.00
5966;BME280;3009;43.224;27.976;2023-04-01T03:34:01;99481.06;;;7.96;100.00
5966;BME280;3009;43.224;27.976;2023-04-01T03:36:29;99474.97;;;7.96;100.00
5966;BME280;3009;43.224;27.976;2023-04-01T03:38:58;99483.41;;;7.89;100.00
5966;BME280;3009;43.224;27.976;2023-04-01T03:41:26;99482.16;;;7.78;100.00
5966;BME280;3009;43.224;27.976;2023-04-01T03:43:55;99487.63;;;7.64;100.00
5966;BME280;3009;43.224;27.976;2023-04-01T03:46:24;99489.31;;;7.60;100.00
5966;BME280;3009;43.224;27.976;2023-04-01T03:48:53;99499.38;;;7.63;100.00
5966;BME280;3009;43.224;27.976;2023-04-01T03:51:21;99502.63;;;7.51;100.00
5966;BME280;3009;43.224;27.976;2023-04-01T03:53:50;99499.75;;;7.39;100.00
5966;BME280;3009;43.224;27.976;2023-04-01T03:56:18;99500.84;;;7.38;100.00
5966;BME280;3009;43.224;27.976;2023-04-01T03:58:46;99504.94;;;7.44;100.00
5966;BME280;3009;43.224;27.976;2023-04-01T04:01:17;99502.78;;;7.55;100.00
5966;BME280;3009;43.224;27.976;2023-04-01T04:03:49;99503.09;;;7.53;100.00
5966;BME280;3009;43.224;27.976;2023-04-01T04:06:19;99509.19;;;7.45;100.00
5966;BME280;3009;43.224;27.976;2023-04-01T04:08:48;99518.00;;;7.54;100.00
5966;BME280;3009;43.224;27.976;2023-04-01T04:11:16;99514.00;;;7.74;100.00
5966;BME280;3009;43.224;27.976;2023-04-01T04:13:45;99508.34;;;7.76;100.00
5966;BME280;3009;43.224;27.976;2023-04-01T04:16:15;99507.22;;;7.68;100.00
5966;BME280;3009;43.224;27.976;2023-04-01T04:18:44;99503.03;;;7.85;100.00
5966;BME280;3009;43.224;27.976;2023-04-01T04:21:14;99492.09;;;8.04;100.00
5966;BME280;3009;43.224;27.976;2023-04-01T04:23:43;99484.38;;;8.20;100.00
5966;BME280;3009;43.224;27.976;2023-04-01T04:26:13;99492.09;;;8.21;100.00
5966;BME280;3009;43.224;27.976;2023-04-01T04:28:42;99487.53;;;8.39;100.00
5966;BME280;3009;43.224;27.976;2023-04-01T04:31:10;99485.34;;;8.76;100.00
5966;BME280;3009;43.224;27.976;2023-04-01T04:33:39;99480.09;;;8.97;100.00
5966;BME280;3009;43.224;27.976;2023-04-01T04:36:08;99482.38;;;9.25;100.00
5966;BME280;3009;43.224;27.976;2023-04-01T04:38:38;99481.06;;;9.40;100.00
5966;BME280;3009;43.224;27.976;2023-04-01T04:43:38;99476.50;;;9.70;100.00
5966;BME280;3009;43.224;27.976;2023-04-01T04:46:07;99469.75;;;9.94;100.00
5966;BME280;3009;43.224;27.976;2023-04-01T04:48:36;99474.13;;;10.20;100.00
5966;BME280;3009;43.224;27.976;2023-04-01T04:51:04;99471.06;;;10.30;100.00
5966;BME280;3009;43.224;27.976;2023-04-01T04:53:33;99465.38;;;10.53;100.00
5966;BME280;3009;43.224;27.976;2023-04-01T04:56:03;99468.44;;;10.76;100.00
5966;BME280;3009;43.224;27.976;2023-04-01T04:58:31;99462.00;;;10.89;99.36
5966;BME280;3009;43.224;27.976;2023-04-01T05:01:05;99476.03;;;11.20;98.39
5966;BME280;3009;43.224;27.976;2023-04-01T05:03:34;99474.03;;;11.53;95.74
5966;BME280;3009;43.224;27.976;2023-04-01T05:06:03;99481.31;;;11.78;95.20
5966;BME280;3009;43.224;27.976;2023-04-01T05:08:32;99472.22;;;11.82;93.68
5966;BME280;3009;43.224;27.976;2023-04-01T05:11:02;99476.84;;;11.57;94.99
5966;BME280;3009;43.224;27.976;2023-04-01T05:13:31;99472.91;;;11.42;94.75
5966;BME280;3009;43.224;27.976;2023-04-01T05:15:59;99483.75;;;11.33;95.28
5966;BME280;3009;43.224;27.976;2023-04-01T05:18:28;99460.28;;;10.60;100.00
5966;BME280;3009;43.224;27.976;2023-04-01T05:20:56;99467.53;;;10.72;100.00
5966;BME280;3009;43.224;27.976;2023-04-01T05:23:25;99456.53;;;10.86;100.00
5966;BME280;3009;43.224;27.976;2023-04-01T05:25:53;99460.25;;;10.93;98.74
5966;BME280;3009;43.224;27.976;2023-04-01T05:28:25;99455.00;;;11.09;98.16
5966;BME280;3009;43.224;27.976;2023-04-01T05:30:53;99453.66;;;11.15;96.65
5966;BME280;3009;43.224;27.976;2023-04-01T05:33:22;99455.34;;;11.20;96.27
5966;BME280;3009;43.224;27.976;2023-04-01T05:35:50;99438.94;;;11.34;95.46
5966;BME280;3009;43.224;27.976;2023-04-01T05:38:19;99448.56;;;11.47;94.99
5966;BME280;3009;43.224;27.976;2023-04-01T05:40:47;99445.63;;;11.52;94.27
5966;BME280;3009;43.224;27.976;2023-04-01T05:43:15;99444.22;;;11.83;91.26
5966;BME280;3009;43.224;27.976;2023-04-01T05:45:45;99443.53;;;12.11;89.48
5966;BME280;3009;43.224;27.976;2023-04-01T05:48:14;99434.47;;;12.44;86.97
5966;BME280;3009;43.224;27.976;2023-04-01T05:50:42;99426.59;;;12.67;83.91
5966;BME280;3009;43.224;27.976;2023-04-01T05:53:11;99425.75;;;12.79;81.93
5966;BME280;3009;43.224;27.976;2023-04-01T05:55:39;99420.72;;;13.09;80.47
5966;BME280;3009;43.224;27.976;2023-04-01T05:58:08;99418.47;;;13.79;75.66
5966;BME280;3009;43.224;27.976;2023-04-01T06:00:36;99412.88;;;14.27;73.81
5966;BME280;3009;43.224;27.976;2023-04-01T06:03:06;99414.56;;;14.78;70.69
5966;BME280;3009;43.224;27.976;2023-04-01T06:05:39;99417.66;;;15.53;67.66
5966;BME280;3009;43.224;27.976;2023-04-01T06:08:11;99413.81;;;16.11;63.01
5966;BME280;3009;43.224;27.976;2023-04-01T06:10:55;99403.34;;;16.47;60.97
5966;BME280;3009;43.224;27.976;2023-04-01T06:13:37;99401.75;;;16.42;61.01
5966;BME280;3009;43.224;27.976;2023-04-01T06:16:17;99391.38;;;16.44;60.09
5966;BME280;3009;43.224;27.976;2023-04-01T06:18:59;99399.31;;;16.30;60.07
5966;BME280;3009;43.224;27.976;2023-04-01T06:21:38;99411.31;;;15.99;61.46
5966;BME280;3009;43.224;27.976;2023-04-01T06:24:28;99408.56;;;15.11;64.90
5966;BME280;3009;43.224;27.976;2023-04-01T06:27:04;99404.94;;;14.77;66.83
5966;BME280;3009;43.224;27.976;2023-04-01T06:29:55;99400.41;;;14.42;67.99
5966;BME280;3009;43.224;27.976;2023-04-01T06:32:45;99407.19;;;14.12;69.62
5966;BME280;3009;43.224;27.976;2023-04-01T06:35:31;99403.28;;;13.90;71.89
5966;BME280;3009;43.224;27.976;2023-04-01T06:38:40;99394.91;;;13.76;74.02
5966;BME280;3009;43.224;27.976;2023-04-01T06:41:30;99391.78;;;13.74;74.86
5966;BME280;3009;43.224;27.976;2023-04-01T06:44:09;99389.34;;;13.49;75.59
5966;BME280;3009;43.224;27.976;2023-04-01T06:46:45;99388.13;;;13.46;76.21
5966;BME280;3009;43.224;27.976;2023-04-01T06:49:35;99381.63;;;13.47;77.47
5966;BME280;3009;43.224;27.976;2023-04-01T06:52:14;99383.03;;;12.62;82.31
5966;BME280;3009;43.224;27.976;2023-04-01T06:54:49;99377.28;;;12.03;87.88
5966;BME280;3009;43.224;27.976;2023-04-01T06:57:24;99383.28;;;12.12;88.95
5966;BME280;3009;43.224;27.976;2023-04-01T06:59:57;99381.25;;;12.21;90.23
5966;BME280;3009;43.224;27.976;2023-04-01T07:02:33;99376.19;;;12.64;89.30
5966;BME280;3009;43.224;27.976;2023-04-01T07:05:04;99375.97;;;13.21;86.00
5966;BME280;3009;43.224;27.976;2023-04-01T07:07:37;99384.50;;;13.39;85.20
5966;BME280;3009;43.224;27.976;2023-04-01T07:10:13;99398.56;;;13.16;84.35
5966;BME280;3009;43.224;27.976;2023-04-01T07:12:48;99390.84;;;13.15;85.04
5966;BME280;3009;43.224;27.976;2023-04-01T07:15:22;99403.34;;;13.07;85.69
5966;BME280;3009;43.224;27.976;2023-04-01T07:17:56;99408.56;;;12.84;87.01
5966;BME280;3009;43.224;27.976;2023-04-01T07:20:29;99402.44;;;12.39;91.57
5966;BME280;3009;43.224;27.976;2023-04-01T07:23:02;99396.66;;;12.69;91.90
5966;BME280;3009;43.224;27.976;2023-04-01T07:25:34;99394.59;;;12.78;92.13
5966;BME280;3009;43.224;27.976;2023-04-01T07:28:06;99383.75;;;12.90;92.11
5966;BME280;3009;43.224;27.976;2023-04-01T07:30:47;99383.34;;;13.56;88.08
5966;BME280;3009;43.224;27.976;2023-04-01T07:33:23;99381.00;;;13.74;85.26
5966;BME280;3009;43.224;27.976;2023-04-01T07:35:57;99380.16;;;13.50;86.59
5966;BME280;3009;43.224;27.976;2023-04-01T07:38:40;99380.66;;;13.56;85.65
5966;BME280;3009;43.224;27.976;2023-04-01T07:41:21;99365.25;;;13.56;87.00
5966;BME280;3009;43.224;27.976;2023-04-01T07:43:59;99369.47;;;13.73;86.14
5966;BME280;3009;43.224;27.976;2023-04-01T07:46:43;99373.56;;;13.32;88.10
5966;BME280;3009;43.224;27.976;2023-04-01T07:49:18;99368.91;;;12.97;90.95
5966;BME280;3009;43.224;27.976;2023-04-01T07:51:52;99356.38;;;13.04;92.71
5966;BME280;3009;43.224;27.976;2023-04-01T07:54:35;99360.91;;;12.84;93.71
5966;BME280;3009;43.224;27.976;2023-04-01T07:57:12;99361.16;;;13.11;92.47
5966;BME280;3009;43.224;27.976;2023-04-01T07:59:48;99364.56;;;13.08;93.17
5966;BME280;3009;43.224;27.976;2023-04-01T08:02:28;99353.16;;;12.19;97.99
5966;BME280;3009;43.224;27.976;2023-04-01T08:05:06;99352.94;;;12.12;100.00
5966;BME280;3009;43.224;27.976;2023-04-01T08:07:44;99346.59;;;12.04;100.00
5966;BME280;3009;43.224;27.976;2023-04-01T08:10:20;99340.41;;;12.16;100.00
5966;BME280;3009;43.224;27.976;2023-04-01T08:12:58;99339.91;;;12.74;99.88
5966;BME280;3009;43.224;27.976;2023-04-01T08:15:35;99322.84;;;13.34;95.37
5966;BME280;3009;43.224;27.976;2023-04-01T08:18:16;99322.59;;;13.58;90.50
5966;BME280;3009;43.224;27.976;2023-04-01T08:20:51;99323.78;;;14.20;87.81
5966;BME280;3009;43.224;27.976;2023-04-01T08:23:25;99318.50;;;14.50;85.32
5966;BME280;3009;43.224;27.976;2023-04-01T08:26:02;99325.63;;;14.15;85.54
5966;BME280;3009;43.224;27.976;2023-04-01T08:28:37;99325.97;;;14.14;84.87
5966;BME280;3009;43.224;27.976;2023-04-01T08:31:11;99315.72;;;14.00;85.48
5966;BME280;3009;43.224;27.976;2023-04-01T08:33:42;99301.72;;;14.14;85.81
5966;BME280;3009;43.224;27.976;2023-04-01T08:36:15;99314.47;;;14.17;85.92
5966;BME280;3009;43.224;27.976;2023-04-01T08:38:47;99312.25;;;13.99;85.17
5966;BME280;3009;43.224;27.976;2023-04-01T08:44:34;99311.31;;;13.72;88.76
5966;BME280;3009;43.224;27.976;2023-04-01T08:47:23;99307.06;;;13.52;90.19
5966;BME280;3009;43.224;27.976;2023-04-01T08:53:09;99311.41;;;13.76;90.14
5966;BME280;3009;43.224;27.976;2023-04-01T08:56:03;99304.16;;;13.99;89.75
5966;BME280;3009;43.224;27.976;2023-04-01T08:59:01;99302.06;;;14.35;88.49
5966;BME280;3009;43.224;27.976;2023-04-01T09:01:55;99301.91;;;13.62;91.33
5966;BME280;3009;43.224;27.976;2023-04-01T09:04:37;99301.19;;;13.65;91.94
5966;BME280;3009;43.224;27.976;2023-04-01T09:07:21;99294.22;;;14.04;89.63
5966;BME280;3009;43.224;27.976;2023-04-01T09:10:24;99286.66;;;14.13;88.22
5966;BME280;3009;43.224;27.976;2023-04-01T09:13:13;99290.69;;;14.46;84.31
5966;BME280;3009;43.224;27.976;2023-04-01T09:15:58;99275.38;;;13.84;89.42
5966;BME280;3009;43.224;27.976;2023-04-01T09:21:56;99272.38;;;14.09;88.99
5966;BME280;3009;43.224;27.976;2023-04-01T09:24:41;99273.44;;;14.27;88.80
5966;BME280;3009;43.224;27.976;2023-04-01T09:27:21;99271.06;;;13.79;90.32
5966;BME280;3009;43.224;27.976;2023-04-01T09:33:42;99269.59;;;13.27;94.71
5966;BME280;3009;43.224;27.976;2023-04-01T09:36:25;99261.81;;;13.57;94.94
5966;BME280;3009;43.224;27.976;2023-04-01T09:39:25;99265.44;;;13.88;93.64
5966;BME280;3009;43.224;27.976;2023-04-01T09:42:21;99253.38;;;14.02;91.30
5966;BME280;3009;43.224;27.976;2023-04-01T09:44:58;99261.63;;;13.89;92.42
5966;BME280;3009;43.224;27.976;2023-04-01T09:47:43;99249.72;;;13.32;95.86
5966;BME280;3009;43.224;27.976;2023-04-01T09:50:31;99242.97;;;13.38;96.71
5966;BME280;3009;43.224;27.976;2023-04-01T09:53:13;99236.16;;;13.08;97.69
5966;BME280;3009;43.224;27.976;2023-04-01T09:56:07;99227.66;;;13.06;99.57
5966;BME280;3009;43.224;27.976;2023-04-01T10:01:44;99222.69;;;13.44;96.22
5966;BME280;3009;43.224;27.976;2023-04-01T10:04:49;99213.56;;;13.33;98.03
5966;BME280;3009;43.224;27.976;2023-04-01T10:14:13;99197.53;;;13.79;95.68
5966;BME280;3009;43.224;27.976;2023-04-01T10:20:14;99182.75;;;14.15;93.95
5966;BME280;3009;43.224;27.976;2023-04-01T10:23:13;99173.88;;;14.42;92.09
5966;BME280;3009;43.224;27.976;2023-04-01T10:29:31;99176.59;;;14.15;90.38
5966;BME280;3009;43.224;27.976;2023-04-01T10:35:39;99170.22;;;14.27;90.93
5966;BME280;3009;43.224;27.976;2023-04-01T10:48:22;99170.97;;;15.45;83.63
5966;BME280;3009;43.224;27.976;2023-04-01T10:51:17;99162.34;;;15.70;82.56
5966;BME280;3009;43.224;27.976;2023-04-01T10:54:12;99165.88;;;15.36;83.79
5966;BME280;3009;43.224;27.976;2023-04-01T10:56:47;99166.84;;;15.17;86.53
5966;BME280;3009;43.224;27.976;2023-04-01T10:59:45;99150.69;;;14.91;87.03
5966;BME280;3009;43.224;27.976;2023-04-01T11:05:58;99148.59;;;15.11;85.38
5966;BME280;3009;43.224;27.976;2023-04-01T11:09:12;99140.59;;;15.55;82.94
5966;BME280;3009;43.224;27.976;2023-04-01T11:12:35;99138.72;;;15.22;82.19
5966;BME280;3009;43.224;27.976;2023-04-01T11:15:31;99125.22;;;14.88;84.25
5966;BME280;3009;43.224;27.976;2023-04-01T11:18:26;99122.34;;;15.41;83.38
5966;BME280;3009;43.224;27.976;2023-04-01T11:24:29;99117.88;;;15.19;83.01
5966;BME280;3009;43.224;27.976;2023-04-01T11:27:15;99112.13;;;15.65;81.01
5966;BME280;3009;43.224;27.976;2023-04-01T11:30:04;99104.94;;;16.39;75.54
5966;BME280;3009;43.224;27.976;2023-04-01T11:32:43;99101.94;;;16.55;74.19
5966;BME280;3009;43.224;27.976;2023-04-01T11:35:25;99104.22;;;15.87;76.98
5966;BME280;3009;43.224;27.976;2023-04-01T11:38:06;99094.44;;;15.75;78.92
5966;BME280;3009;43.224;27.976;2023-04-01T11:40:38;99104.44;;;15.71;79.60
5966;BME280;3009;43.224;27.976;2023-04-01T11:43:15;99109.69;;;15.53;81.86
5966;BME280;3009;43.224;27.976;2023-04-01T11:46:05;99107.38;;;15.51;83.21
5966;BME280;3009;43.224;27.976;2023-04-01T11:48:45;99099.16;;;15.40;82.06
5966;BME280;3009;43.224;27.976;2023-04-01T11:51:39;99104.41;;;15.26;83.31
5966;BME280;3009;43.224;27.976;2023-04-01T11:54:22;99094.78;;;15.70;81.59
5966;BME280;3009;43.224;27.976;2023-04-01T11:57:07;99096.75;;;16.25;78.13
5966;BME280;3009;43.224;27.976;2023-04-01T11:59:57;99077.56;;;16.48;75.00
5966;BME280;3009;43.224;27.976;2023-04-01T12:02:41;99069.06;;;16.50;74.10
5966;BME280;3009;43.224;27.976;2023-04-01T12:05:25;99074.03;;;16.40;75.19
5966;BME280;3009;43.224;27.976;2023-04-01T12:08:04;99075.19;;;16.39;76.28
5966;BME280;3009;43.224;27.976;2023-04-01T12:10:43;99072.84;;;16.34;75.86
5966;BME280;3009;43.224;27.976;2023-04-01T12:13:24;99078.44;;;16.00;78.27
5966;BME280;3009;43.224;27.976;2023-04-01T12:16:08;99069.66;;;16.18;78.07
5966;BME280;3009;43.224;27.976;2023-04-01T12:18:43;99056.94;;;16.22;78.04
5966;BME280;3009;43.224;27.976;2023-04-01T12:21:21;99063.19;;;16.33;77.47
5966;BME280;3009;43.224;27.976;2023-04-01T12:24:26;99059.03;;;16.50;77.78
5966;BME280;3009;43.224;27.976;2023-04-01T12:30:11;99059.97;;;16.13;77.42
5966;BME280;3009;43.224;27.976;2023-04-01T12:32:47;99057.75;;;15.26;83.91
5966;BME280;3009;43.224;27.976;2023-04-01T12:35:24;99062.13;;;15.41;83.66
5966;BME280;3009;43.224;27.976;2023-04-01T12:38:10;99065.72;;;15.56;83.07
5966;BME280;3009;43.224;27.976;2023-04-01T12:40:57;99073.75;;;15.49;82.70
5966;BME280;3009;43.224;27.976;2023-04-01T12:46:59;99073.38;;;14.71;85.05
5966;BME280;3009;43.224;27.976;2023-04-01T12:52:42;99070.63;;;14.38;92.18
5966;BME280;3009;43.224;27.976;2023-04-01T12:55:35;99058.84;;;14.23;92.18
5966;BME280;3009;43.224;27.976;2023-04-01T12:58:28;99048.84;;;14.23;91.53
5966;BME280;3009;43.224;27.976;2023-04-01T13:01:19;99050.38;;;13.94;95.78
5966;BME280;3009;43.224;27.976;2023-04-01T13:04:28;99050.63;;;13.85;95.51
5966;BME280;3009;43.224;27.976;2023-04-01T13:10:20;99040.00;;;13.46;100.00
5966;BME280;3009;43.224;27.976;2023-04-01T13:13:15;99041.34;;;13.56;100.00
5966;BME280;3009;43.224;27.976;2023-04-01T13:15:51;99024.50;;;13.62;100.00
5966;BME280;3009;43.224;27.976;2023-04-01T13:18:28;99034.31;;;13.51;100.00
5966;BME280;3009;43.224;27.976;2023-04-01T13:21:07;99036.59;;;13.49;100.00
5966;BME280;3009;43.224;27.976;2023-04-01T13:23:52;99026.53;;;13.46;100.00
5966;BME280;3009;43.224;27.976;2023-04-01T13:26:28;99022.81;;;13.31;100.00
5966;BME280;3009;43.224;27.976;2023-04-01T13:29:05;99014.50;;;13.17;100.00
5966;BME280;3009;43.224;27.976;2023-04-01T13:31:59;99013.16;;;13.07;100.00
5966;BME280;3009;43.224;27.976;2023-04-01T13:34:40;99025.13;;;13.09;100.00
5966;BME280;3009;43.224;27.976;2023-04-01T13:37:31;99026.78;;;13.37;100.00
5966;BME280;3009;43.224;27.976;2023-04-01T13:40:18;99019.44;;;13.57;100.00
5966;BME280;3009;43.224;27.976;2023-04-01T13:42:54;99011.25;;;13.77;100.00
5966;BME280;3009;43.224;27.976;2023-04-01T13:45:30;99001.81;;;13.90;99.23
5966;BME280;3009;43.224;27.976;2023-04-01T13:48:29;99004.47;;;14.17;98.59
5966;BME280;3009;43.224;27.976;2023-04-01T13:51:26;98998.28;;;14.43;94.94
5966;BME280;3009;43.224;27.976;2023-04-01T13:54:32;98994.38;;;14.75;91.36
5966;BME280;3009;43.224;27.976;2023-04-01T13:57:30;98999.47;;;15.21;89.34
5966;BME280;3009;43.224;27.976;2023-04-01T14:00:19;98994.66;;;15.45;86.86
5966;BME280;3009;43.224;27.976;2023-04-01T14:06:14;99009.31;;;15.47;85.11
5966;BME280;3009;43.224;27.976;2023-04-01T14:09:10;99000.69;;;15.31;84.19
5966;BME280;3009;43.224;27.976;2023-04-01T14:11:51;99001.03;;;15.22;84.87
5966;BME280;3009;43.224;27.976;2023-04-01T14:14:34;99001.91;;;14.96;85.77
5966;BME280;3009;43.224;27.976;2023-04-01T14:17:15;98988.50;;;15.03;85.33
5966;BME280;3009;43.224;27.976;2023-04-01T14:22:38;98999.56;;;14.57;87.92
5966;BME280;3009;43.224;27.976;2023-04-01T14:25:35;99009.84;;;14.47;89.69
5966;BME280;3009;43.224;27.976;2023-04-01T14:28:13;99008.00;;;14.55;89.58
5966;BME280;3009;43.224;27.976;2023-04-01T14:34:00;98995.72;;;14.24;90.99
5966;BME280;3009;43.224;27.976;2023-04-01T14:36:43;98992.94;;;14.50;89.64
5966;BME280;3009;43.224;27.976;2023-04-01T14:39:49;98980.31;;;14.24;89.80
5966;BME280;3009;43.224;27.976;2023-04-01T14:42:52;98985.59;;;14.17;91.56
5966;BME280;3009;43.224;27.976;2023-04-01T14:48:25;98994.56;;;13.94;92.51
5966;BME280;3009;43.224;27.976;2023-04-01T14:51:03;98983.09;;;14.01;93.02
5966;BME280;3009;43.224;27.976;2023-04-01T14:53:38;98979.94;;;13.95;92.72
5966;BME280;3009;43.224;27.976;2023-04-01T14:56:12;98975.78;;;14.02;92.62
5966;BME280;3009;43.224;27.976;2023-04-01T14:58:44;98973.25;;;14.16;91.39
5966;BME280;3009;43.224;27.976;2023-04-01T15:01:25;98957.63;;;14.25;90.32
5966;BME280;3009;43.224;27.976;2023-04-01T15:04:06;98956.09;;;13.97;92.34
5966;BME280;3009;43.224;27.976;2023-04-01T15:07:00;98941.25;;;13.80;91.95
5966;BME280;3009;43.224;27.976;2023-04-01T15:09:38;98956.41;;;13.62;95.84
5966;BME280;3009;43.224;27.976;2023-04-01T15:12:18;98943.13;;;13.76;94.05
5966;BME280;3009;43.224;27.976;2023-04-01T15:15:12;98939.50;;;13.65;93.20
5966;BME280;3009;43.224;27.976;2023-04-01T15:17:58;98943.19;;;13.53;94.31
5966;BME280;3009;43.224;27.976;2023-04-01T15:20:48;98945.56;;;13.58;95.07
5966;BME280;3009;43.224;27.976;2023-04-01T15:23:40;98945.41;;;13.74;93.51